Bluffton, MN (56518)

5:33 AM CST on February 06, 2016 (GMT -0600)
Wadena Municipal | | Change Station
CLOSE
Current Station
Airport
Location: Wadena,
Elevation: 1371 ft
Nearby Weather Stations
Active Advisory: Winter Storm Watch

Elev 1371 ft 46.45 °N, 95.21 °W | Updated 18 minutes ago

Mostly Cloudy
Mostly Cloudy
19 °F
Feels Like 13 °F
N
5
Wind Variable Wind from South

Today
High -- | Low -- °F
--% Chance of Precip.
Yesterday
High -- | Low -- °F
Precip. -- in
Pressure 30.00 in
Visibility 7.0 miles
Clouds Clear
Windchill 13 °F
Dew Point 19 °F
Humidity 100%
Rainfall 0.00 in
Snow Depth Not available.
7:38 AM 5:31 PM
Waning Crescent, 6% visible
METAR KADC 061115Z AUTO 17004KT 7SM CLR M07/M07 A3000 RMK AO2
Pressure 30.00 in
Visibility 7.0 miles
Clouds Clear
Windchill 13 °F
Dew Point 19 °F
Humidity 100%
Rainfall 0.00 in
Snow Depth Not available.
7:38 AM 5:31 PM
Waning Crescent, 6% visible
METAR KADC 061115Z AUTO 17004KT 7SM CLR M07/M07 A3000 RMK AO2

10-Day Weather Forecast

Almanac

Astronomy

Feb. 06, 2016 Rise Set
Actual Time
Civil Twilight
Nautical Twilight
Astronomical Twilight
Moon
Length of Visible Light
Length of Day
Tomorrow will be .
, % of the Moon is Illuminated

Today's Extremes

State Highs State Lows

Community

WunderPhotos

Upload Photos

1,890,933 photos uploaded!

WunderBlog® & News

Nearby

Air Quality

  Air Quality AQ Index Pollutant
Not available.

Snow Depth

Station Depth Elevation

Earthquake Activity

City Distance Mag. Time & Date
Minimum magnitude displayed is 2.5.

Coastal Water Temperatures

Place Temperature

Stations

Nearby Weather Stations

Station Location Temp. Windchill Dew Point Humidity Wind Precip. Elev Updated Type
                   

Watches & Warnings

Winter Storm Watch
Issued: 4:08 AM CST Feb. 6, 2016 – National Weather Service

... Winter Storm Watch remains in effect from Sunday morning
through late Sunday night...

* timing... snow is possible from Sunday morning through late
Sunday night.

* Snow accumulations... total snow accumulations of 1 to 4 inches
are possible.

* Winds / visibilities... reductions in visibility will be possible
in open areas from falling and blowing snow Sunday afternoon
into Sunday night.

* Impacts... plan on difficult driving conditions.

Precautionary/preparedness actions...

A Winter Storm Watch means there is potential for significant
snow... sleet or ice accumulations that may impact travel.
Continue to monitor the latest forecasts.


Jr